Waubeka, Wisconsin
Current Conditions -  °F | °C
As of 4:55 AM on Sunday 23 Nov 2014 (Local Time) from KETB Reporting Station
Overcast Overcast  
Wind Chill: 43°   Ceiling: 500
Heat Index: 48°   Visibility: 7mi
Dew Point: 45°   Wind: 12mph
Humidity: 87%   Direction: 210°SSW
Pressure: 29.69"   Gusts: NA
Location:  43.4948°N, 87.9836°W
Report Text: KETB 231055Z AUTO 21010KT 7SM OVC005 09/07 A2969 RMK AO2
Loading
Personal Weather Stations






























Interactive Weather Map New forecast layout! Learn more

10-Day Weather Forecast

Advertisements
Track Severe Weather on mobile